Mt. Lincoln Summit Weather observations

Data are for 10 minute period ending at time listed.
 Day   Time   Solar   Ave.   Ave.  Ave.  Vector    Max.   Stn.  
  of    of     Rad.   Air    Rel.  Wind   Wind     Wind   Baro.  
Year   Day            Temp.  Hum.  Speed  Dir.     Gust   Pres. 
2015   (PST)   W/m2    F      %     mph   deg.      mph    mb    
-----------------------------------------------------------------
  29    3:50  999.0    27   78.9    17    101.6    20.4   564.90
  29    4:00  999.0    27   78.9    17    101.9    21.8   567.80
  29    4:10  999.0    27   78.9    17    102.4    21.6   564.20
  29    4:20  999.0    27   78.9    16    105.4    23.2   561.00
  29    4:30  999.0    27   78.9    17    103.6    23.1   554.70
  29    4:40  999.0    27   78.9    17    105.7    23.8   557.70
  29    4:50  999.0    27   78.9    17    105.2    23.4   562.00
  29    5:00  999.0    27   78.9    18    101.5    23.4   563.50
  29    5:10  999.0    27   78.9    20     98.5    25.9   561.90
  29    5:20  999.0    27   78.8    19     99.8    23.5   562.10
  29    5:30  999.0    27   78.8    21    100.3    24.3   561.50
  29    5:40  999.0    27   78.8    22     99.7    26.2   563.20
  29    5:50  999.0    27   78.8    22     99.5    26.9   559.40
  29    6:00  999.0    27   78.7    23     98.4    28.6   554.30
  29    6:10  999.0    26   78.6    24    100.2    27.8   558.00
  29    6:20  999.0    26   78.6    24     99.9    29.2   562.10
  29    6:30  999.0    27   78.5    24     99.2    29.8   564.00
  29    6:40  999.0    26   78.5    24    100.1    29.8   564.10
  29    6:50  999.0    26   78.4    23     99.7    25.4   563.80
  29    7:00  999.0    26   78.3    22     99.6    25.3   560.30
  29    7:10  999.0    26   78.4    23    100.9    27.2   562.00
  29    7:20  999.0    26   78.3    23    101.7    28.3   562.40
  29    7:30  999.0    27   78.2    23     99.9    26.1   556.60
  29    7:40  999.0    27   78.0    23     98.0    29.2   559.10
  29    7:50  999.0    28   77.7    23     99.3    27.5   562.50
  29    8:00  999.0    28   77.6    25     98.9    30.1   565.10
  29    8:10  999.0    28   77.4    25    100.6    32.1   566.50
  29    8:20  999.0    29   77.2    25    101.9    32.8   567.10
  29    8:30  999.0    29   77.1    26    106.6    37.8   570.30
  29    8:40  999.0    29   76.9    23    107.5    31.4   565.10
  29    8:50  999.0    29   76.8    24    103.6    31.0   560.80
  29    9:00  999.0    30   76.8    22     99.4    28.4   558.80
  29    9:10  999.0    31   76.4    20     99.6    27.5   560.30
  29    9:20  999.0    32   75.9    22    101.3    26.0   563.70
  29    9:30  999.0    33   75.1    20     99.6    24.7   568.20
  29    9:40  999.0    33   74.5    22    102.2    28.1   570.20
  29    9:50  999.0    34   74.0    20    104.4    26.2   569.40
  29   10:00  999.0    35   73.5    19    105.1    25.2   572.40
  29   10:10  999.0    35   73.2    20    108.5    24.8   570.80
  29   10:20  999.0    35   73.1    19    108.7    23.2   576.90
  29   10:30  999.0    35   73.3    17    108.2    23.8   577.80
  29   10:40  999.0    35   73.4    18    104.7    23.0   573.90
  29   10:50  999.0    36   73.6    18    107.9    23.4   579.50
  29   11:00  999.0    36   73.7    17    102.8    20.7   582.00
  29   11:10  999.0    36   73.8    16     99.5    21.2   587.80
  29   11:20  999.0    37   74.1    14    109.7    18.9   586.40
  29   11:30  999.0    37   74.0    15    106.3    25.2   580.90
  29   11:40  999.0    37   74.2    15    100.3    20.2   584.20
  29   11:50  999.0    37   74.3    14    100.4    19.1   586.80
  29   12:00  999.0    37   74.6    12    105.4    17.8   586.20
  29   12:10  999.0    38   74.7    10    116.5    14.7   581.30
  29   12:20  999.0    38   74.6    11    104.3    15.9   581.80
  29   12:30  999.0    39   74.7    10    116.2    13.8   581.30
  29   12:40  999.0    39   74.4     7    116.8    10.9   585.60
  29   12:50  999.0    40   74.4     6    106.0    11.1   587.50
  29   13:00  999.0    40   74.6     8    121.6    12.8   587.20
  29   13:10  999.0    40   74.5     5    123.7     9.1   588.90
  29   13:20  999.0    40   74.6     7    106.2    12.9   583.10
  29   13:30  999.0    41   74.0    12    114.6    16.1   585.60
  29   13:40  999.0    41   73.5    11    115.4    14.3   587.60
  29   13:50  999.0    41   73.5     6    108.9    10.2   586.10
  29   14:00  999.0    41   74.1     0    111.2     1.8   585.10
  29   14:10  999.0    42   74.3     1     88.1     5.3   585.20
  29   14:20  999.0    41   73.8     5     68.5     8.6   587.50
  29   14:30  999.0    40   74.2     3     59.8    11.4   585.70
  29   14:40  999.0    38   74.8     5     56.7    11.3   585.00
  29   14:50  999.0    37   75.8     7     61.6    12.8   585.40
  29   15:00  999.0    38   76.3     4     68.5    11.2   586.20
  29   15:10  999.0    39   76.3     1    132.6     5.8   584.50
  29   15:20  999.0    39   75.9     4    187.2    19.8   585.70
  29   15:30  999.0    38   76.0     3    263.7    14.4   581.40
  29   15:40  999.0    38   76.5     2    110.4     5.2   580.80
  29   15:50  999.0    37   76.5     3     84.2     6.2   581.70
  29   16:00  999.0    37   76.6     2     71.2     6.0   582.40
  29   16:10  999.0    37   76.9     1     70.6     5.8   579.50
  29   16:20  999.0    36   77.0     2     69.1     7.1   579.10
  29   16:30  999.0    36   77.2     1    152.4     3.5   582.70
  29   16:40  999.0    36   77.3     1     94.3     4.4   581.60
  29   16:50  999.0    36   77.3     0    115.1     0.8   578.60
  29   17:00  999.0    37   76.8     3     74.3     8.6   577.30
  29   17:10  999.0    37   76.3     1     13.6     5.4   578.00
  29   17:20  999.0    37   75.9     8    359.6    13.2   580.60
  29   17:30  999.0    35   76.1     9     19.0    12.8   582.50
  29   17:40  999.0    34   76.9     5     37.2     8.3   580.50
  29   17:50  999.0    33   77.3     7     35.5     9.6   579.50
  29   18:00  999.0    32   77.5     5     43.0     7.6   578.80
  29   18:10  999.0    32   77.7     8     65.5    14.6   579.90
  29   18:20  999.0    32   77.7    10     67.8    14.2   578.60
  29   18:30  999.0    32   77.7     8     79.8    11.5   575.00
  29   18:40  999.0    32   77.7    10     84.4    12.3   579.70
  29   18:50  999.0    32   77.7    10     87.8    14.8   578.40
  29   19:00  999.0    32   77.7     9     86.3    13.0   577.80
  29   19:10  999.0    32   77.8    10     85.3    12.1   579.10
  29   19:20  999.0    32   77.8    10     85.9    11.7   578.60
  29   19:30  999.0    31   77.8     9     82.3    10.5   579.40
  29   19:40  999.0    31   77.8     9     84.7    10.6   580.40
  29   19:50  999.0    31   77.8     9     88.0    10.8   579.70
  29   20:00  999.0    31   77.8    10     87.7    12.1   578.40
  29   20:10  999.0    31   77.9    12     88.2    13.6   581.80
  29   20:20  999.0    31   77.9    12     86.5    13.5   575.80
  29   20:30  999.0    31   77.9    13     90.9    15.3   577.70
  29   20:40  999.0    31   77.9    13     89.9    14.8   572.60
  29   20:50  999.0    31   77.8    14     88.5    16.5   572.30
  29   21:00  999.0    31   77.8    14     87.8    17.0   575.10
  29   21:10  999.0    30   77.8    14     87.7    16.7   571.40
  29   21:20  999.0    30   77.8    14     91.0    16.0   574.10
  29   21:30  999.0    30   77.8    14     89.0    16.5   570.30
  29   21:40  999.0    30   77.8    15     89.8    17.8   565.60
  29   21:50  999.0    30   77.8    16     91.2    18.5   567.10
  29   22:00  999.0    30   77.8    17     90.7    18.7   569.60
  29   22:10  999.0    30   77.8    17     92.2    19.4   572.40
  29   22:20  999.0    30   77.8    17     90.2    20.2   572.40
  29   22:30  999.0    29   77.8    18     92.7    21.3   570.70
  29   22:40  999.0    29   77.8    18     92.4    21.5   570.50
  29   22:50  999.0    29   77.8    18     88.9    19.7   570.30
  29   23:00  999.0    29   77.8    18     89.7    20.8   568.70
  29   23:10  999.0    29   77.8    18     91.5    19.5   568.70
  29   23:20  999.0    29   77.8    17     91.9    19.7   571.20
  29   23:30  999.0    29   77.9    15     94.6    17.2   568.90
  29   23:40  999.0    29   77.8    15     93.0    17.9   571.80
  29   23:50  999.0    29   77.8    16     90.6    18.4   571.00
  30    0:00  999.0    29   77.8    16     88.6    18.1   571.10
  30    0:10  999.0    29   77.8    16     88.5    17.6   570.30
  30    0:20  999.0    29   77.8    16     88.9    18.0   568.40
  30    0:30  999.0    29   77.8    16     88.4    18.8   569.60
  30    0:40  999.0    29   77.8    18     90.9    20.6   567.40
  30    0:50  999.0    29   77.8    18     89.8    22.7   570.30
  30    1:00  999.0    29   77.8    18     91.8    20.4   570.70
  30    1:10  999.0    29   77.7    18     91.5    20.5   568.10
  30    1:20  999.0    28   77.8    18     95.0    20.4   569.60
  30    1:30  999.0    28   77.7    19     94.8    21.0   566.90
  30    1:40  999.0    28   77.8    20     94.1    22.4   564.70
  30    1:50  999.0    28   77.8    20     93.2    21.9   569.40
  30    2:00  999.0    28   77.8    20     91.7    22.2   568.20
  30    2:10  999.0    28   77.8    18     91.8    22.2   567.30
  30    2:20  999.0    28   77.8    18     90.5    22.0   567.90
  30    2:30  999.0    28   77.8    20     89.9    22.9   566.80
  30    2:40  999.0    28   77.7    20     91.9    23.1   569.60
  30    2:50  999.0    28   77.7    20     95.1    22.0   567.50
  30    3:00  999.0    28   77.7    19     94.2    21.3   566.80
  30    3:10  999.0    28   77.7    20     92.3    22.2   566.20
  30    3:20  999.0    28   77.7    20     94.1    22.4   565.70
  30    3:30  999.0    28   77.7    19     92.6    21.5   569.30
  30    3:40  999.0    28   77.7    19     91.9    21.5   569.30

Return to Mt. Lincoln graphs page.


Western Regional Climate Center,wrcc@dri.edu